Lemsid, Western Sahara
Current Conditions -  °F | °C
As of 1:00 AM on Tuesday 27 Jan 2015 (Local Time) from GMML Reporting Station
Scattered Clouds Scattered Clouds  
Wind Chill: 55°   Ceiling: Unl
Heat Index: 55°   Visibility: 4mi
Dew Point: 54°   Wind: 5mph
Humidity: 94%   Direction: 70°ENE
Pressure: 30.33"   Gusts: NA
Location:  26.55°N, 13.85°W
Report Text: GMML 270100Z 07004KT 6000 SCT010 13/12 Q1027 NOSIG
Loading
Personal Weather Stations






























Interactive Weather Map New forecast layout! Learn more

10-Day Weather Forecast

Advertisements
Track Severe Weather on mobile